createdAt,value
2022-08-26T00:02:56.072Z,19.70
2022-08-26T00:07:59.263Z,23.92
2022-08-26T00:13:05.660Z,27.20
2022-08-26T00:18:16.849Z,24.08
2022-08-26T00:23:28.962Z,21.35
2022-08-26T00:28:43.307Z,24.13
2022-08-26T00:33:47.874Z,18.70
2022-08-26T00:38:53.674Z,17.88
2022-08-26T00:49:13.416Z,26.48
2022-08-26T00:54:27.047Z,18.45
2022-08-26T00:59:34.672Z,25.42
2022-08-26T01:04:39.830Z,24.05
2022-08-26T01:09:44.517Z,28.45
2022-08-26T01:14:50.524Z,19.48
2022-08-26T01:20:02.148Z,26.83
2022-08-26T01:25:22.853Z,23.08
2022-08-26T01:30:26.667Z,20.20
2022-08-26T01:35:32.575Z,26.63
2022-08-26T01:41:01.313Z,20.15
2022-08-26T01:46:20.152Z,25.30
2022-08-26T01:51:28.459Z,25.40
2022-08-26T01:56:55.830Z,24.33
2022-08-26T02:02:18.251Z,28.00
2022-08-26T02:07:28.451Z,28.17
2022-08-26T02:12:41.216Z,22.98
2022-08-26T02:17:47.696Z,17.15
2022-08-26T02:22:50.607Z,20.67
2022-08-26T02:28:13.108Z,23.17
2022-08-26T02:33:16.995Z,23.92
2022-08-26T02:43:36.772Z,23.73
2022-08-26T02:48:49.760Z,22.02
2022-08-26T02:53:53.094Z,25.65
2022-08-26T02:59:24.392Z,30.57
2022-08-26T03:04:34.306Z,23.83
2022-08-26T03:09:37.076Z,23.48
2022-08-26T03:14:47.515Z,17.63
2022-08-26T03:19:57.251Z,20.85
2022-08-26T03:30:46.677Z,21.42
2022-08-26T03:36:07.421Z,24.60
2022-08-26T03:41:11.149Z,22.88
2022-08-26T03:46:16.482Z,21.75
2022-08-26T03:51:20.563Z,17.92
2022-08-26T03:56:23.793Z,21.38
2022-08-26T04:01:31.189Z,21.33
2022-08-26T04:06:39.066Z,20.42
2022-08-26T04:11:43.550Z,22.70
2022-08-26T04:16:49.039Z,20.85
2022-08-26T04:21:53.891Z,23.45
2022-08-26T04:26:58.053Z,23.15
2022-08-26T04:32:03.053Z,23.63
2022-08-26T04:37:06.410Z,20.95
2022-08-26T04:47:13.892Z,23.58
2022-08-26T04:57:19.567Z,21.13
2022-08-26T05:02:26.302Z,18.50
2022-08-26T05:07:29.685Z,23.48
2022-08-26T05:12:35.138Z,19.70
2022-08-26T05:17:39.157Z,34.45
2022-08-26T05:22:42.741Z,25.65
2022-08-26T05:27:45.600Z,26.42
2022-08-26T05:32:53.604Z,19.73
2022-08-26T05:37:57.916Z,23.48
2022-08-26T05:43:00.724Z,23.58
2022-08-26T05:48:08.885Z,23.73
2022-08-26T05:53:15.074Z,23.35
2022-08-26T05:58:24.170Z,25.98
2022-08-26T06:03:28.791Z,29.92
2022-08-26T06:08:33.929Z,30.13
2022-08-26T06:13:38.928Z,25.80
2022-08-26T06:18:45.069Z,31.13
2022-08-26T06:24:08.494Z,26.15
2022-08-26T06:29:16.408Z,30.23
2022-08-26T06:34:30.680Z,26.20
2022-08-26T06:39:33.482Z,31.85
2022-08-26T06:44:35.998Z,35.40
2022-08-26T06:49:40.154Z,29.45
2022-08-26T06:54:43.190Z,26.67
2022-08-26T06:59:46.888Z,30.75
2022-08-26T07:04:51.073Z,32.92
2022-08-26T07:09:54.427Z,27.05
2022-08-26T07:14:57.254Z,30.20
2022-08-26T07:20:03.206Z,32.83
2022-08-26T07:25:09.661Z,30.98
2022-08-26T07:30:14.914Z,30.02
2022-08-26T07:35:18.829Z,33.67
2022-08-26T07:40:22.166Z,33.38
2022-08-26T07:45:25.117Z,38.05
2022-08-26T07:50:47.085Z,34.17
2022-08-26T08:00:55.098Z,29.20
2022-08-26T08:05:59.363Z,28.42
2022-08-26T08:11:02.746Z,37.42
2022-08-26T08:16:05.957Z,31.10
2022-08-26T08:21:22.074Z,33.75
2022-08-26T08:26:28.037Z,27.13
2022-08-26T08:31:55.978Z,27.73
2022-08-26T08:36:57.114Z,34.78
2022-08-26T08:42:28.039Z,29.00
2022-08-26T08:47:35.629Z,33.42
2022-08-26T08:52:42.197Z,22.77
2022-08-26T08:58:02.145Z,27.17
2022-08-26T09:03:18.712Z,31.88
2022-08-26T09:08:28.511Z,33.95
2022-08-26T09:13:31.788Z,34.10
2022-08-26T09:18:48.050Z,34.50
2022-08-26T09:23:54.045Z,32.88
2022-08-26T09:28:59.739Z,30.90
2022-08-26T09:34:17.810Z,29.42
2022-08-26T09:39:31.496Z,30.15
2022-08-26T09:44:35.777Z,26.50
2022-08-26T09:49:39.981Z,28.42
2022-08-26T09:54:58.265Z,26.27
2022-08-26T10:00:01.729Z,27.38
2022-08-26T10:05:10.191Z,33.00
2022-08-26T10:10:19.005Z,25.30
2022-08-26T10:15:23.141Z,44.08
2022-08-26T10:20:32.018Z,28.00
2022-08-26T10:25:43.251Z,23.70
2022-08-26T10:30:50.591Z,31.23
2022-08-26T10:35:56.836Z,22.02
2022-08-26T10:41:09.824Z,18.10
2022-08-26T10:46:18.497Z,22.23
2022-08-26T10:51:25.411Z,23.88
2022-08-26T10:56:44.423Z,27.02
2022-08-26T11:01:54.798Z,27.15
2022-08-26T11:07:37.292Z,22.10
2022-08-26T11:12:56.634Z,24.92
2022-08-26T11:18:02.031Z,21.13
2022-08-26T11:23:40.392Z,19.20
2022-08-26T11:28:48.302Z,22.05
2022-08-26T11:33:53.024Z,28.45
2022-08-26T11:38:57.209Z,22.92
2022-08-26T11:44:02.327Z,17.23
2022-08-26T11:49:07.851Z,23.38
2022-08-26T11:54:12.409Z,19.88
2022-08-26T11:59:23.817Z,18.70
2022-08-26T12:04:30.047Z,21.20
2022-08-26T12:09:35.658Z,16.27
2022-08-26T12:14:39.742Z,18.65
2022-08-26T12:19:42.741Z,20.23
2022-08-26T12:24:50.494Z,20.23
2022-08-26T12:30:12.240Z,17.52
2022-08-26T12:35:17.365Z,21.63
2022-08-26T12:40:28.895Z,19.88
2022-08-26T12:45:35.489Z,19.35
2022-08-26T12:50:40.169Z,18.88
2022-08-26T12:55:45.434Z,23.10
2022-08-26T13:00:51.193Z,22.67
2022-08-26T13:05:53.868Z,18.80
2022-08-26T13:11:05.620Z,20.40
2022-08-26T13:16:09.564Z,23.42
2022-08-26T13:21:17.028Z,20.52
2022-08-26T13:26:20.121Z,21.98
2022-08-26T13:31:26.972Z,17.27
2022-08-26T13:36:30.292Z,17.05
2022-08-26T13:41:33.112Z,14.20
2022-08-26T13:46:37.547Z,16.30
2022-08-26T13:51:40.365Z,10.15
2022-08-26T13:56:42.936Z,10.23
2022-08-26T14:01:46.889Z,9.73
2022-08-26T14:06:49.609Z,7.47
2022-08-26T14:11:54.359Z,6.90
2022-08-26T14:17:00.436Z,10.30
2022-08-26T14:22:05.087Z,11.73
2022-08-26T14:27:07.829Z,9.95
2022-08-26T14:32:21.020Z,11.83
2022-08-26T14:37:33.571Z,16.63
2022-08-26T14:42:37.202Z,9.18
2022-08-26T14:47:50.987Z,8.50
2022-08-26T14:53:11.290Z,7.30
2022-08-26T14:58:13.864Z,7.03
2022-08-26T15:08:23.034Z,11.15
2022-08-26T15:13:30.935Z,14.35
2022-08-26T15:18:35.173Z,9.30
2022-08-26T15:23:39.323Z,8.35
2022-08-26T15:28:42.515Z,11.30
2022-08-26T15:33:47.124Z,9.93
2022-08-26T15:38:49.659Z,10.00
2022-08-26T15:43:53.014Z,10.63
2022-08-26T15:48:56.839Z,14.55
2022-08-26T15:54:00.020Z,10.73
2022-08-26T15:59:03.661Z,10.82
2022-08-26T16:04:09.039Z,14.82
2022-08-26T16:09:15.249Z,14.73
2022-08-26T16:14:18.102Z,9.18
2022-08-26T16:19:22.565Z,11.03
2022-08-26T16:24:30.251Z,11.52
2022-08-26T16:29:33.081Z,8.82
2022-08-26T16:34:37.186Z,9.68
2022-08-26T16:39:49.714Z,9.63
2022-08-26T16:44:52.450Z,7.40
2022-08-26T16:49:56.559Z,10.10
2022-08-26T16:54:59.620Z,10.40
2022-08-26T17:00:05.863Z,8.23
2022-08-26T17:05:11.731Z,9.48
2022-08-26T17:10:14.595Z,8.05
2022-08-26T17:15:18.267Z,10.83
2022-08-26T17:25:29.085Z,10.18
2022-08-26T17:30:31.885Z,11.18
2022-08-26T17:35:36.152Z,11.77
2022-08-26T17:40:38.706Z,12.45
2022-08-26T17:45:41.829Z,9.93
2022-08-26T17:50:49.692Z,13.35
2022-08-26T17:55:53.036Z,17.27
2022-08-26T18:00:56.856Z,14.27
2022-08-26T18:06:00.674Z,15.98
2022-08-26T18:11:03.586Z,14.60
2022-08-26T18:16:07.600Z,12.63
2022-08-26T18:21:15.642Z,19.13
2022-08-26T18:26:19.800Z,12.95
2022-08-26T18:31:22.424Z,11.43
2022-08-26T18:36:28.471Z,14.20
2022-08-26T18:41:34.286Z,12.50
2022-08-26T18:46:37.022Z,12.93
2022-08-26T18:51:41.896Z,15.50
2022-08-26T18:56:44.608Z,16.35
2022-08-26T19:01:50.519Z,16.83
2022-08-26T19:06:54.976Z,33.38
2022-08-26T19:11:57.544Z,16.88
2022-08-26T19:17:01.453Z,25.73
2022-08-26T19:22:05.592Z,18.27
2022-08-26T19:27:14.572Z,18.38
2022-08-26T19:32:17.994Z,15.60
2022-08-26T19:37:21.931Z,14.07
2022-08-26T19:42:24.395Z,19.88
2022-08-26T19:47:28.058Z,21.00
2022-08-26T19:52:31.967Z,19.60
2022-08-26T19:57:34.682Z,14.57
2022-08-26T20:02:37.254Z,22.38
2022-08-26T20:07:41.877Z,19.70
2022-08-26T20:12:44.359Z,14.75
2022-08-26T20:17:46.915Z,22.73
2022-08-26T20:22:53.274Z,23.88
2022-08-26T20:27:55.730Z,15.38
2022-08-26T20:32:58.229Z,17.92
2022-08-26T20:38:02.020Z,15.50
2022-08-26T20:48:08.572Z,15.38
2022-08-26T20:53:13.088Z,15.85
2022-08-26T20:58:15.839Z,20.83
2022-08-26T21:03:18.318Z,14.95
2022-08-26T21:08:22.168Z,18.70
2022-08-26T21:18:27.094Z,14.30
2022-08-26T21:23:30.925Z,17.48
2022-08-26T21:33:39.321Z,27.13
2022-08-26T21:38:43.441Z,22.45
2022-08-26T21:43:46.486Z,18.92
2022-08-26T21:48:51.175Z,21.80
2022-08-26T21:53:55.487Z,17.85
2022-08-26T21:58:58.955Z,19.05
2022-08-26T22:04:03.762Z,14.38
2022-08-26T22:09:07.620Z,12.85
2022-08-26T22:19:13.448Z,18.67
2022-08-26T22:24:23.136Z,15.05
2022-08-26T22:29:27.386Z,17.77
2022-08-26T22:34:29.895Z,18.35
2022-08-26T22:39:34.157Z,15.77
2022-08-26T22:44:37.581Z,15.63
2022-08-26T22:49:40.120Z,12.77
2022-08-26T22:54:43.972Z,13.80
2022-08-26T23:04:49.984Z,13.52
2022-08-26T23:09:53.805Z,11.18
2022-08-26T23:19:59.103Z,10.40
2022-08-26T23:25:03.036Z,10.90
2022-08-26T23:30:14.663Z,10.68
2022-08-26T23:35:21.440Z,12.43
2022-08-26T23:40:28.346Z,17.52
2022-08-26T23:45:31.793Z,12.27
2022-08-26T23:50:52.480Z,14.65
2022-08-26T23:55:56.493Z,11.23
